Terminal Aerodrome Forecast
Issued by NWS

Home | Current Version | Previous Version | Text Only | Print | Product List | Glossary On
Versions: 1 2 3 4 5 6 7 8 9 10 11 12 13 14 15 16 17 18 19 20 21 22 23 24 25 26 27
000
FTUS43 KDLH 192300
TAFBRD
TAF
KBRD 192340Z 2000/2024 16006KT 3SM BR OVC005
      TEMPO 2000/2004 1 1/2SM -SN BKN005 OVC011
     FM200400 16004KT 4SM -SN BR OVC004
     FM201100 16005KT 2SM -FZDZSN BR OVC003
     FM201900 17006KT 4SM -FZDZSN BR OVC008=

USA.gov is the U.S. government's official web portal to all federal, state and local government web resources and services.